sensor_id;sensor_type;location;lat;lon;timestamp;P1;durP1;ratioP1;P2;durP2;ratioP2
35667;SDS011;22158;59.280;17.806;2024-03-29T00:00:08;42.15;;;17.48;;
35667;SDS011;22158;59.280;17.806;2024-03-29T00:02:34;35.08;;;16.83;;
35667;SDS011;22158;59.280;17.806;2024-03-29T00:04:59;36.90;;;16.00;;
35667;SDS011;22158;59.280;17.806;2024-03-29T00:07:26;39.33;;;18.90;;
35667;SDS011;22158;59.280;17.806;2024-03-29T00:09:52;37.53;;;19.50;;
35667;SDS011;22158;59.280;17.806;2024-03-29T00:12:17;33.03;;;16.58;;
35667;SDS011;22158;59.280;17.806;2024-03-29T00:14:43;39.92;;;18.90;;
35667;SDS011;22158;59.280;17.806;2024-03-29T00:17:09;45.33;;;19.50;;
35667;SDS011;22158;59.280;17.806;2024-03-29T00:19:34;36.53;;;17.10;;
35667;SDS011;22158;59.280;17.806;2024-03-29T00:22:00;38.10;;;18.13;;
35667;SDS011;22158;59.280;17.806;2024-03-29T00:24:26;35.72;;;18.67;;
35667;SDS011;22158;59.280;17.806;2024-03-29T00:26:52;42.40;;;16.70;;
35667;SDS011;22158;59.280;17.806;2024-03-29T00:29:17;42.28;;;19.45;;
35667;SDS011;22158;59.280;17.806;2024-03-29T00:31:43;41.13;;;17.55;;
35667;SDS011;22158;59.280;17.806;2024-03-29T00:34:09;32.80;;;17.52;;
35667;SDS011;22158;59.280;17.806;2024-03-29T00:36:34;42.15;;;17.65;;
35667;SDS011;22158;59.280;17.806;2024-03-29T00:39:00;32.75;;;18.52;;
35667;SDS011;22158;59.280;17.806;2024-03-29T00:41:26;40.05;;;17.08;;
35667;SDS011;22158;59.280;17.806;2024-03-29T00:43:52;37.60;;;17.08;;
35667;SDS011;22158;59.280;17.806;2024-03-29T00:46:17;34.88;;;18.05;;
35667;SDS011;22158;59.280;17.806;2024-03-29T00:48:43;39.60;;;17.02;;
35667;SDS011;22158;59.280;17.806;2024-03-29T00:51:11;37.25;;;17.38;;
35667;SDS011;22158;59.280;17.806;2024-03-29T00:53:37;43.63;;;19.38;;
35667;SDS011;22158;59.280;17.806;2024-03-29T00:56:03;44.42;;;19.70;;
35667;SDS011;22158;59.280;17.806;2024-03-29T00:58:29;33.92;;;17.52;;
35667;SDS011;22158;59.280;17.806;2024-03-29T01:00:54;38.88;;;18.02;;
35667;SDS011;22158;59.280;17.806;2024-03-29T01:03:20;34.92;;;16.95;;
35667;SDS011;22158;59.280;17.806;2024-03-29T01:05:45;38.03;;;20.33;;
35667;SDS011;22158;59.280;17.806;2024-03-29T01:08:11;35.03;;;16.80;;
35667;SDS011;22158;59.280;17.806;2024-03-29T01:10:37;34.17;;;18.38;;
35667;SDS011;22158;59.280;17.806;2024-03-29T01:13:02;41.13;;;18.42;;
35667;SDS011;22158;59.280;17.806;2024-03-29T01:15:28;33.13;;;17.27;;
35667;SDS011;22158;59.280;17.806;2024-03-29T01:17:54;32.40;;;17.60;;
35667;SDS011;22158;59.280;17.806;2024-03-29T01:20:19;35.38;;;17.42;;
35667;SDS011;22158;59.280;17.806;2024-03-29T01:22:45;34.10;;;16.90;;
35667;SDS011;22158;59.280;17.806;2024-03-29T01:25:11;38.65;;;17.45;;
35667;SDS011;22158;59.280;17.806;2024-03-29T01:27:38;31.30;;;16.42;;
35667;SDS011;22158;59.280;17.806;2024-03-29T01:30:04;33.20;;;16.90;;
35667;SDS011;22158;59.280;17.806;2024-03-29T01:32:30;34.83;;;17.73;;
35667;SDS011;22158;59.280;17.806;2024-03-29T01:34:56;40.00;;;19.88;;
35667;SDS011;22158;59.280;17.806;2024-03-29T01:37:21;38.03;;;18.77;;
35667;SDS011;22158;59.280;17.806;2024-03-29T01:39:47;34.60;;;17.55;;
35667;SDS011;22158;59.280;17.806;2024-03-29T01:42:12;34.88;;;17.13;;
35667;SDS011;22158;59.280;17.806;2024-03-29T01:44:38;32.88;;;16.65;;
35667;SDS011;22158;59.280;17.806;2024-03-29T01:47:04;35.47;;;18.52;;
35667;SDS011;22158;59.280;17.806;2024-03-29T01:49:30;36.88;;;17.30;;
35667;SDS011;22158;59.280;17.806;2024-03-29T01:51:56;37.25;;;17.13;;
35667;SDS011;22158;59.280;17.806;2024-03-29T01:54:22;35.65;;;15.70;;
35667;SDS011;22158;59.280;17.806;2024-03-29T01:56:48;34.35;;;16.35;;
35667;SDS011;22158;59.280;17.806;2024-03-29T01:59:14;35.70;;;18.52;;
35667;SDS011;22158;59.280;17.806;2024-03-29T02:01:42;39.08;;;17.75;;
35667;SDS011;22158;59.280;17.806;2024-03-29T02:04:08;36.13;;;17.80;;
35667;SDS011;22158;59.280;17.806;2024-03-29T02:06:35;36.38;;;17.00;;
35667;SDS011;22158;59.280;17.806;2024-03-29T02:09:01;33.40;;;16.67;;
35667;SDS011;22158;59.280;17.806;2024-03-29T02:11:28;31.55;;;16.63;;
35667;SDS011;22158;59.280;17.806;2024-03-29T02:13:54;37.75;;;19.38;;
35667;SDS011;22158;59.280;17.806;2024-03-29T02:16:21;32.97;;;18.05;;
35667;SDS011;22158;59.280;17.806;2024-03-29T02:18:46;33.03;;;16.15;;
35667;SDS011;22158;59.280;17.806;2024-03-29T02:21:12;32.95;;;16.65;;
35667;SDS011;22158;59.280;17.806;2024-03-29T02:23:40;28.40;;;15.05;;
35667;SDS011;22158;59.280;17.806;2024-03-29T02:26:09;34.10;;;16.67;;
35667;SDS011;22158;59.280;17.806;2024-03-29T02:28:36;33.05;;;16.38;;
35667;SDS011;22158;59.280;17.806;2024-03-29T02:31:01;30.73;;;16.45;;
35667;SDS011;22158;59.280;17.806;2024-03-29T02:33:28;34.90;;;17.63;;
35667;SDS011;22158;59.280;17.806;2024-03-29T02:35:53;39.22;;;17.75;;
35667;SDS011;22158;59.280;17.806;2024-03-29T02:38:19;32.70;;;16.25;;
35667;SDS011;22158;59.280;17.806;2024-03-29T02:40:45;35.70;;;17.60;;
35667;SDS011;22158;59.280;17.806;2024-03-29T02:43:10;28.27;;;15.45;;
35667;SDS011;22158;59.280;17.806;2024-03-29T02:45:36;31.33;;;15.27;;
35667;SDS011;22158;59.280;17.806;2024-03-29T02:48:02;29.52;;;14.75;;
35667;SDS011;22158;59.280;17.806;2024-03-29T02:50:28;30.25;;;16.60;;
35667;SDS011;22158;59.280;17.806;2024-03-29T02:52:53;30.02;;;17.33;;
35667;SDS011;22158;59.280;17.806;2024-03-29T02:55:19;31.33;;;15.88;;
35667;SDS011;22158;59.280;17.806;2024-03-29T02:57:44;31.48;;;15.55;;
35667;SDS011;22158;59.280;17.806;2024-03-29T03:00:10;28.63;;;14.68;;
35667;SDS011;22158;59.280;17.806;2024-03-29T03:02:37;29.77;;;16.40;;
35667;SDS011;22158;59.280;17.806;2024-03-29T03:05:04;31.27;;;16.15;;
35667;SDS011;22158;59.280;17.806;2024-03-29T03:07:30;31.58;;;16.02;;
35667;SDS011;22158;59.280;17.806;2024-03-29T03:10:15;30.77;;;15.82;;
35667;SDS011;22158;59.280;17.806;2024-03-29T03:12:59;30.00;;;16.02;;
35667;SDS011;22158;59.280;17.806;2024-03-29T03:15:25;34.67;;;16.00;;
35667;SDS011;22158;59.280;17.806;2024-03-29T03:17:50;38.63;;;17.67;;
35667;SDS011;22158;59.280;17.806;2024-03-29T03:20:16;32.80;;;16.63;;
35667;SDS011;22158;59.280;17.806;2024-03-29T03:22:42;38.03;;;17.42;;
35667;SDS011;22158;59.280;17.806;2024-03-29T03:25:08;34.42;;;16.95;;
35667;SDS011;22158;59.280;17.806;2024-03-29T03:27:33;38.08;;;17.17;;
35667;SDS011;22158;59.280;17.806;2024-03-29T03:30:00;43.83;;;20.45;;
35667;SDS011;22158;59.280;17.806;2024-03-29T03:32:25;41.63;;;19.63;;
35667;SDS011;22158;59.280;17.806;2024-03-29T03:34:51;36.58;;;16.48;;
35667;SDS011;22158;59.280;17.806;2024-03-29T03:37:17;36.45;;;16.35;;
35667;SDS011;22158;59.280;17.806;2024-03-29T03:39:42;41.45;;;18.13;;
35667;SDS011;22158;59.280;17.806;2024-03-29T03:42:08;43.17;;;18.30;;
35667;SDS011;22158;59.280;17.806;2024-03-29T03:44:34;39.78;;;19.50;;
35667;SDS011;22158;59.280;17.806;2024-03-29T03:46:59;42.63;;;18.85;;
35667;SDS011;22158;59.280;17.806;2024-03-29T03:49:25;43.97;;;19.17;;
35667;SDS011;22158;59.280;17.806;2024-03-29T03:51:50;38.88;;;16.85;;
35667;SDS011;22158;59.280;17.806;2024-03-29T03:54:16;43.40;;;17.52;;
35667;SDS011;22158;59.280;17.806;2024-03-29T03:56:42;42.40;;;18.35;;
35667;SDS011;22158;59.280;17.806;2024-03-29T03:59:07;49.25;;;18.77;;
35667;SDS011;22158;59.280;17.806;2024-03-29T04:01:34;39.80;;;17.02;;
35667;SDS011;22158;59.280;17.806;2024-03-29T04:04:00;39.03;;;17.35;;
35667;SDS011;22158;59.280;17.806;2024-03-29T04:06:26;40.78;;;17.63;;
35667;SDS011;22158;59.280;17.806;2024-03-29T04:08:51;42.05;;;18.23;;
35667;SDS011;22158;59.280;17.806;2024-03-29T04:11:17;41.13;;;19.02;;
35667;SDS011;22158;59.280;17.806;2024-03-29T04:13:45;33.80;;;18.92;;
35667;SDS011;22158;59.280;17.806;2024-03-29T04:16:11;39.25;;;18.30;;
35667;SDS011;22158;59.280;17.806;2024-03-29T04:18:36;39.17;;;18.35;;
35667;SDS011;22158;59.280;17.806;2024-03-29T04:21:02;35.47;;;17.50;;
35667;SDS011;22158;59.280;17.806;2024-03-29T04:23:29;43.83;;;19.70;;
35667;SDS011;22158;59.280;17.806;2024-03-29T04:25:57;42.22;;;19.08;;
35667;SDS011;22158;59.280;17.806;2024-03-29T04:28:24;37.88;;;18.23;;
35667;SDS011;22158;59.280;17.806;2024-03-29T04:33:20;39.00;;;17.80;;
35667;SDS011;22158;59.280;17.806;2024-03-29T04:35:58;41.53;;;17.95;;
35667;SDS011;22158;59.280;17.806;2024-03-29T04:38:26;40.53;;;17.98;;
35667;SDS011;22158;59.280;17.806;2024-03-29T04:40:52;37.35;;;17.90;;
35667;SDS011;22158;59.280;17.806;2024-03-29T04:43:21;40.35;;;18.45;;
35667;SDS011;22158;59.280;17.806;2024-03-29T04:45:48;42.30;;;18.40;;
35667;SDS011;22158;59.280;17.806;2024-03-29T04:48:14;45.10;;;19.40;;
35667;SDS011;22158;59.280;17.806;2024-03-29T04:50:40;37.80;;;18.85;;
35667;SDS011;22158;59.280;17.806;2024-03-29T04:53:06;42.88;;;17.83;;
35667;SDS011;22158;59.280;17.806;2024-03-29T04:55:33;35.17;;;16.65;;
35667;SDS011;22158;59.280;17.806;2024-03-29T04:57:59;41.25;;;18.45;;
35667;SDS011;22158;59.280;17.806;2024-03-29T05:00:25;41.08;;;17.33;;
35667;SDS011;22158;59.280;17.806;2024-03-29T05:02:51;39.28;;;18.10;;
35667;SDS011;22158;59.280;17.806;2024-03-29T05:05:16;43.88;;;18.65;;
35667;SDS011;22158;59.280;17.806;2024-03-29T05:07:42;37.20;;;17.50;;
35667;SDS011;22158;59.280;17.806;2024-03-29T05:10:08;44.70;;;18.83;;
35667;SDS011;22158;59.280;17.806;2024-03-29T05:12:35;40.67;;;18.25;;
35667;SDS011;22158;59.280;17.806;2024-03-29T05:15:01;34.53;;;16.85;;
35667;SDS011;22158;59.280;17.806;2024-03-29T05:17:26;34.90;;;18.52;;
35667;SDS011;22158;59.280;17.806;2024-03-29T05:19:53;41.63;;;18.75;;
35667;SDS011;22158;59.280;17.806;2024-03-29T05:22:19;40.00;;;17.85;;
35667;SDS011;22158;59.280;17.806;2024-03-29T05:24:45;37.97;;;18.92;;
35667;SDS011;22158;59.280;17.806;2024-03-29T05:27:13;44.45;;;19.42;;
35667;SDS011;22158;59.280;17.806;2024-03-29T05:29:39;38.47;;;18.38;;
35667;SDS011;22158;59.280;17.806;2024-03-29T05:32:06;41.28;;;17.65;;
35667;SDS011;22158;59.280;17.806;2024-03-29T05:34:32;36.78;;;17.45;;
35667;SDS011;22158;59.280;17.806;2024-03-29T05:36:58;39.22;;;18.55;;
35667;SDS011;22158;59.280;17.806;2024-03-29T05:39:23;38.53;;;17.13;;
35667;SDS011;22158;59.280;17.806;2024-03-29T05:41:49;44.42;;;19.80;;
35667;SDS011;22158;59.280;17.806;2024-03-29T05:44:15;39.00;;;19.30;;
35667;SDS011;22158;59.280;17.806;2024-03-29T05:46:40;33.58;;;16.65;;
35667;SDS011;22158;59.280;17.806;2024-03-29T05:49:06;38.83;;;18.27;;
35667;SDS011;22158;59.280;17.806;2024-03-29T05:51:32;30.13;;;16.92;;
35667;SDS011;22158;59.280;17.806;2024-03-29T05:54:01;34.70;;;17.63;;
35667;SDS011;22158;59.280;17.806;2024-03-29T05:56:30;33.33;;;15.75;;
35667;SDS011;22158;59.280;17.806;2024-03-29T05:58:56;30.52;;;15.23;;
35667;SDS011;22158;59.280;17.806;2024-03-29T06:01:21;38.00;;;16.67;;
35667;SDS011;22158;59.280;17.806;2024-03-29T06:03:50;36.58;;;17.08;;
35667;SDS011;22158;59.280;17.806;2024-03-29T06:06:20;33.78;;;16.20;;
35667;SDS011;22158;59.280;17.806;2024-03-29T06:08:49;29.67;;;15.57;;
35667;SDS011;22158;59.280;17.806;2024-03-29T06:11:15;35.67;;;16.35;;
35667;SDS011;22158;59.280;17.806;2024-03-29T06:13:40;31.55;;;15.95;;
35667;SDS011;22158;59.280;17.806;2024-03-29T06:16:22;34.80;;;16.10;;
35667;SDS011;22158;59.280;17.806;2024-03-29T06:21:36;29.45;;;15.98;;
35667;SDS011;22158;59.280;17.806;2024-03-29T06:24:08;31.15;;;14.32;;
35667;SDS011;22158;59.280;17.806;2024-03-29T06:26:39;31.05;;;15.18;;
35667;SDS011;22158;59.280;17.806;2024-03-29T06:29:05;28.30;;;13.93;;
35667;SDS011;22158;59.280;17.806;2024-03-29T06:31:31;30.67;;;14.30;;
35667;SDS011;22158;59.280;17.806;2024-03-29T06:33:59;28.83;;;13.90;;
35667;SDS011;22158;59.280;17.806;2024-03-29T06:36:25;24.80;;;13.93;;
35667;SDS011;22158;59.280;17.806;2024-03-29T06:38:51;32.72;;;14.50;;
35667;SDS011;22158;59.280;17.806;2024-03-29T06:41:20;30.00;;;14.85;;
35667;SDS011;22158;59.280;17.806;2024-03-29T06:43:45;28.95;;;13.90;;
35667;SDS011;22158;59.280;17.806;2024-03-29T06:46:11;32.58;;;14.38;;
35667;SDS011;22158;59.280;17.806;2024-03-29T06:48:39;23.08;;;13.52;;
35667;SDS011;22158;59.280;17.806;2024-03-29T06:51:05;22.88;;;12.98;;
35667;SDS011;22158;59.280;17.806;2024-03-29T06:53:31;26.92;;;13.10;;
35667;SDS011;22158;59.280;17.806;2024-03-29T06:55:59;23.48;;;12.65;;
35667;SDS011;22158;59.280;17.806;2024-03-29T06:58:26;22.05;;;12.10;;
35667;SDS011;22158;59.280;17.806;2024-03-29T07:00:51;19.63;;;9.15;;
35667;SDS011;22158;59.280;17.806;2024-03-29T07:03:17;20.80;;;10.48;;
35667;SDS011;22158;59.280;17.806;2024-03-29T07:05:43;17.55;;;9.60;;
35667;SDS011;22158;59.280;17.806;2024-03-29T07:08:11;20.13;;;10.00;;
35667;SDS011;22158;59.280;17.806;2024-03-29T07:10:36;19.13;;;9.43;;
35667;SDS011;22158;59.280;17.806;2024-03-29T07:13:02;17.90;;;10.07;;
35667;SDS011;22158;59.280;17.806;2024-03-29T07:15:27;16.05;;;9.68;;
35667;SDS011;22158;59.280;17.806;2024-03-29T07:17:53;16.58;;;8.52;;
35667;SDS011;22158;59.280;17.806;2024-03-29T07:20:19;17.05;;;9.23;;
35667;SDS011;22158;59.280;17.806;2024-03-29T07:22:44;13.48;;;8.65;;
35667;SDS011;22158;59.280;17.806;2024-03-29T07:25:11;14.20;;;8.00;;
35667;SDS011;22158;59.280;17.806;2024-03-29T07:27:37;16.92;;;8.75;;
35667;SDS011;22158;59.280;17.806;2024-03-29T07:30:03;19.15;;;8.93;;
35667;SDS011;22158;59.280;17.806;2024-03-29T07:32:29;17.73;;;8.85;;
35667;SDS011;22158;59.280;17.806;2024-03-29T07:34:55;14.02;;;9.13;;
35667;SDS011;22158;59.280;17.806;2024-03-29T07:37:23;15.35;;;8.02;;
35667;SDS011;22158;59.280;17.806;2024-03-29T07:39:49;14.35;;;8.50;;
35667;SDS011;22158;59.280;17.806;2024-03-29T07:42:15;11.73;;;6.85;;
35667;SDS011;22158;59.280;17.806;2024-03-29T07:44:41;15.15;;;7.63;;
35667;SDS011;22158;59.280;17.806;2024-03-29T07:47:06;12.45;;;7.45;;
35667;SDS011;22158;59.280;17.806;2024-03-29T07:49:32;12.93;;;7.55;;
35667;SDS011;22158;59.280;17.806;2024-03-29T07:51:58;15.40;;;7.53;;
35667;SDS011;22158;59.280;17.806;2024-03-29T07:54:25;12.95;;;7.07;;
35667;SDS011;22158;59.280;17.806;2024-03-29T07:56:50;14.52;;;8.57;;
35667;SDS011;22158;59.280;17.806;2024-03-29T07:59:16;12.52;;;7.18;;
35667;SDS011;22158;59.280;17.806;2024-03-29T08:01:44;11.70;;;6.38;;
35667;SDS011;22158;59.280;17.806;2024-03-29T08:04:10;17.23;;;7.90;;
35667;SDS011;22158;59.280;17.806;2024-03-29T08:06:35;14.18;;;7.05;;
35667;SDS011;22158;59.280;17.806;2024-03-29T08:09:01;22.20;;;8.88;;
35667;SDS011;22158;59.280;17.806;2024-03-29T08:11:27;13.13;;;6.30;;
35667;SDS011;22158;59.280;17.806;2024-03-29T08:13:52;10.52;;;5.82;;
35667;SDS011;22158;59.280;17.806;2024-03-29T08:16:18;13.82;;;6.20;;
35667;SDS011;22158;59.280;17.806;2024-03-29T08:18:45;13.57;;;7.13;;
35667;SDS011;22158;59.280;17.806;2024-03-29T08:21:14;14.03;;;6.77;;
35667;SDS011;22158;59.280;17.806;2024-03-29T08:23:40;11.27;;;5.68;;
35667;SDS011;22158;59.280;17.806;2024-03-29T08:26:09;11.68;;;6.05;;
35667;SDS011;22158;59.280;17.806;2024-03-29T08:28:35;10.10;;;6.82;;
35667;SDS011;22158;59.280;17.806;2024-03-29T08:31:03;8.82;;;5.70;;
35667;SDS011;22158;59.280;17.806;2024-03-29T08:33:31;10.70;;;6.32;;
35667;SDS011;22158;59.280;17.806;2024-03-29T08:35:56;11.13;;;6.00;;
35667;SDS011;22158;59.280;17.806;2024-03-29T08:38:23;11.18;;;6.28;;
35667;SDS011;22158;59.280;17.806;2024-03-29T08:40:49;12.65;;;6.13;;
35667;SDS011;22158;59.280;17.806;2024-03-29T08:43:15;9.23;;;5.90;;
35667;SDS011;22158;59.280;17.806;2024-03-29T08:45:44;11.65;;;6.13;;
35667;SDS011;22158;59.280;17.806;2024-03-29T08:48:10;14.07;;;6.53;;
35667;SDS011;22158;59.280;17.806;2024-03-29T08:50:36;12.05;;;5.75;;
35667;SDS011;22158;59.280;17.806;2024-03-29T08:53:02;11.18;;;6.53;;
35667;SDS011;22158;59.280;17.806;2024-03-29T08:55:29;12.00;;;6.68;;
35667;SDS011;22158;59.280;17.806;2024-03-29T08:57:56;13.55;;;6.32;;
35667;SDS011;22158;59.280;17.806;2024-03-29T09:00:23;11.63;;;6.60;;
35667;SDS011;22158;59.280;17.806;2024-03-29T09:02:50;11.43;;;5.95;;
35667;SDS011;22158;59.280;17.806;2024-03-29T09:05:15;11.05;;;5.55;;
35667;SDS011;22158;59.280;17.806;2024-03-29T09:07:41;9.75;;;5.85;;
35667;SDS011;22158;59.280;17.806;2024-03-29T09:10:07;11.98;;;6.40;;
35667;SDS011;22158;59.280;17.806;2024-03-29T09:12:33;13.70;;;6.55;;
35667;SDS011;22158;59.280;17.806;2024-03-29T09:15:00;7.47;;;5.05;;
35667;SDS011;22158;59.280;17.806;2024-03-29T09:17:26;7.28;;;5.00;;
35667;SDS011;22158;59.280;17.806;2024-03-29T09:19:52;8.02;;;4.78;;
35667;SDS011;22158;59.280;17.806;2024-03-29T09:22:18;10.82;;;5.22;;
35667;SDS011;22158;59.280;17.806;2024-03-29T09:24:44;8.32;;;5.35;;
35667;SDS011;22158;59.280;17.806;2024-03-29T09:27:10;9.63;;;5.57;;
35667;SDS011;22158;59.280;17.806;2024-03-29T09:29:35;7.30;;;3.88;;
35667;SDS011;22158;59.280;17.806;2024-03-29T09:32:01;8.85;;;4.93;;
35667;SDS011;22158;59.280;17.806;2024-03-29T09:34:27;11.50;;;6.18;;
35667;SDS011;22158;59.280;17.806;2024-03-29T09:36:53;10.77;;;5.20;;
35667;SDS011;22158;59.280;17.806;2024-03-29T09:39:19;13.38;;;4.68;;
35667;SDS011;22158;59.280;17.806;2024-03-29T09:41:45;8.95;;;5.10;;
35667;SDS011;22158;59.280;17.806;2024-03-29T09:44:11;10.88;;;5.28;;
35667;SDS011;22158;59.280;17.806;2024-03-29T09:46:37;8.30;;;4.60;;
35667;SDS011;22158;59.280;17.806;2024-03-29T09:49:06;7.65;;;4.32;;
35667;SDS011;22158;59.280;17.806;2024-03-29T09:51:32;6.88;;;3.92;;
35667;SDS011;22158;59.280;17.806;2024-03-29T09:53:59;9.52;;;5.28;;
35667;SDS011;22158;59.280;17.806;2024-03-29T09:56:26;11.93;;;5.32;;
35667;SDS011;22158;59.280;17.806;2024-03-29T09:58:52;8.77;;;4.72;;
35667;SDS011;22158;59.280;17.806;2024-03-29T10:01:18;8.43;;;4.53;;
35667;SDS011;22158;59.280;17.806;2024-03-29T10:03:50;9.38;;;4.47;;
35667;SDS011;22158;59.280;17.806;2024-03-29T10:06:17;12.68;;;5.47;;
35667;SDS011;22158;59.280;17.806;2024-03-29T10:08:44;9.77;;;5.13;;
35667;SDS011;22158;59.280;17.806;2024-03-29T10:11:10;7.95;;;4.20;;
35667;SDS011;22158;59.280;17.806;2024-03-29T10:13:36;8.05;;;4.20;;
35667;SDS011;22158;59.280;17.806;2024-03-29T10:16:03;11.68;;;5.78;;
35667;SDS011;22158;59.280;17.806;2024-03-29T10:18:29;9.30;;;5.18;;
35667;SDS011;22158;59.280;17.806;2024-03-29T10:23:28;7.27;;;4.87;;
35667;SDS011;22158;59.280;17.806;2024-03-29T10:25:54;9.90;;;4.95;;
35667;SDS011;22158;59.280;17.806;2024-03-29T10:28:20;8.57;;;4.80;;
35667;SDS011;22158;59.280;17.806;2024-03-29T10:30:46;8.80;;;4.85;;
35667;SDS011;22158;59.280;17.806;2024-03-29T10:33:13;8.60;;;4.20;;
35667;SDS011;22158;59.280;17.806;2024-03-29T10:35:41;9.70;;;5.55;;
35667;SDS011;22158;59.280;17.806;2024-03-29T10:38:10;7.15;;;4.57;;
35667;SDS011;22158;59.280;17.806;2024-03-29T10:40:39;10.80;;;5.63;;
35667;SDS011;22158;59.280;17.806;2024-03-29T10:43:10;8.20;;;4.32;;
35667;SDS011;22158;59.280;17.806;2024-03-29T10:45:38;7.93;;;4.53;;
35667;SDS011;22158;59.280;17.806;2024-03-29T10:48:05;7.03;;;4.20;;
35667;SDS011;22158;59.280;17.806;2024-03-29T10:50:36;9.18;;;4.32;;
35667;SDS011;22158;59.280;17.806;2024-03-29T10:53:04;9.05;;;4.28;;
35667;SDS011;22158;59.280;17.806;2024-03-29T10:55:32;8.40;;;4.68;;
35667;SDS011;22158;59.280;17.806;2024-03-29T10:57:59;9.60;;;5.10;;
35667;SDS011;22158;59.280;17.806;2024-03-29T11:00:27;9.82;;;5.00;;
35667;SDS011;22158;59.280;17.806;2024-03-29T11:06:05;5.40;;;3.28;;
35667;SDS011;22158;59.280;17.806;2024-03-29T11:08:35;6.10;;;4.07;;
35667;SDS011;22158;59.280;17.806;2024-03-29T11:11:04;9.50;;;4.15;;
35667;SDS011;22158;59.280;17.806;2024-03-29T11:16:17;9.45;;;4.05;;
35667;SDS011;22158;59.280;17.806;2024-03-29T11:18:46;7.97;;;4.38;;
35667;SDS011;22158;59.280;17.806;2024-03-29T11:21:16;8.48;;;4.13;;
35667;SDS011;22158;59.280;17.806;2024-03-29T11:23:48;5.03;;;3.45;;
35667;SDS011;22158;59.280;17.806;2024-03-29T11:28:40;5.72;;;3.50;;
35667;SDS011;22158;59.280;17.806;2024-03-29T11:31:08;6.45;;;3.60;;
35667;SDS011;22158;59.280;17.806;2024-03-29T11:36:23;5.63;;;4.03;;
35667;SDS011;22158;59.280;17.806;2024-03-29T11:38:56;5.38;;;3.47;;
35667;SDS011;22158;59.280;17.806;2024-03-29T11:41:23;4.85;;;2.88;;
35667;SDS011;22158;59.280;17.806;2024-03-29T11:43:52;5.40;;;3.40;;
35667;SDS011;22158;59.280;17.806;2024-03-29T11:46:21;5.82;;;2.70;;
35667;SDS011;22158;59.280;17.806;2024-03-29T11:48:47;7.00;;;2.63;;
35667;SDS011;22158;59.280;17.806;2024-03-29T11:51:21;6.60;;;2.70;;
35667;SDS011;22158;59.280;17.806;2024-03-29T11:53:49;5.15;;;2.30;;
35667;SDS011;22158;59.280;17.806;2024-03-29T11:56:19;4.05;;;2.47;;
35667;SDS011;22158;59.280;17.806;2024-03-29T11:58:45;7.18;;;2.53;;
35667;SDS011;22158;59.280;17.806;2024-03-29T12:01:13;7.50;;;2.72;;
35667;SDS011;22158;59.280;17.806;2024-03-29T12:03:40;4.90;;;2.80;;
35667;SDS011;22158;59.280;17.806;2024-03-29T12:06:07;6.72;;;3.05;;
35667;SDS011;22158;59.280;17.806;2024-03-29T12:08:33;3.40;;;2.38;;
35667;SDS011;22158;59.280;17.806;2024-03-29T12:11:03;3.75;;;2.33;;
35667;SDS011;22158;59.280;17.806;2024-03-29T12:13:29;4.63;;;2.63;;
35667;SDS011;22158;59.280;17.806;2024-03-29T12:15:55;7.35;;;2.78;;
35667;SDS011;22158;59.280;17.806;2024-03-29T12:18:23;5.95;;;2.30;;
35667;SDS011;22158;59.280;17.806;2024-03-29T12:20:50;7.00;;;2.13;;
35667;SDS011;22158;59.280;17.806;2024-03-29T12:23:17;2.58;;;2.03;;
35667;SDS011;22158;59.280;17.806;2024-03-29T12:25:44;3.88;;;2.08;;
35667;SDS011;22158;59.280;17.806;2024-03-29T12:28:11;3.10;;;1.70;;
35667;SDS011;22158;59.280;17.806;2024-03-29T12:30:40;5.07;;;2.08;;
35667;SDS011;22158;59.280;17.806;2024-03-29T12:33:07;2.42;;;1.52;;
35667;SDS011;22158;59.280;17.806;2024-03-29T12:35:43;4.57;;;1.75;;
35667;SDS011;22158;59.280;17.806;2024-03-29T12:38:11;6.00;;;1.92;;
35667;SDS011;22158;59.280;17.806;2024-03-29T12:40:40;1.50;;;1.40;;
35667;SDS011;22158;59.280;17.806;2024-03-29T12:43:08;1.83;;;1.17;;
35667;SDS011;22158;59.280;17.806;2024-03-29T12:45:39;6.55;;;1.58;;
35667;SDS011;22158;59.280;17.806;2024-03-29T12:48:12;4.57;;;1.85;;
35667;SDS011;22158;59.280;17.806;2024-03-29T12:50:42;4.72;;;1.52;;
35667;SDS011;22158;59.280;17.806;2024-03-29T12:53:09;6.00;;;2.17;;
35667;SDS011;22158;59.280;17.806;2024-03-29T12:55:43;3.65;;;1.52;;
35667;SDS011;22158;59.280;17.806;2024-03-29T12:58:13;3.35;;;1.48;;
35667;SDS011;22158;59.280;17.806;2024-03-29T13:00:41;4.53;;;1.30;;
35667;SDS011;22158;59.280;17.806;2024-03-29T13:03:07;5.07;;;1.55;;
35667;SDS011;22158;59.280;17.806;2024-03-29T13:05:38;1.67;;;1.27;;
35667;SDS011;22158;59.280;17.806;2024-03-29T13:08:06;7.25;;;2.03;;
35667;SDS011;22158;59.280;17.806;2024-03-29T13:10:35;2.70;;;1.80;;
35667;SDS011;22158;59.280;17.806;2024-03-29T13:13:01;3.50;;;1.65;;
35667;SDS011;22158;59.280;17.806;2024-03-29T13:15:27;5.55;;;1.30;;
35667;SDS011;22158;59.280;17.806;2024-03-29T13:17:56;2.72;;;1.38;;
35667;SDS011;22158;59.280;17.806;2024-03-29T13:20:22;1.98;;;1.40;;
35667;SDS011;22158;59.280;17.806;2024-03-29T13:22:49;4.10;;;1.33;;
35667;SDS011;22158;59.280;17.806;2024-03-29T13:25:16;1.83;;;1.27;;
35667;SDS011;22158;59.280;17.806;2024-03-29T13:27:43;4.22;;;1.27;;
35667;SDS011;22158;59.280;17.806;2024-03-29T13:30:11;4.63;;;1.52;;
35667;SDS011;22158;59.280;17.806;2024-03-29T13:32:38;2.08;;;1.13;;
35667;SDS011;22158;59.280;17.806;2024-03-29T13:35:07;5.30;;;1.23;;
35667;SDS011;22158;59.280;17.806;2024-03-29T13:37:39;2.13;;;1.23;;
35667;SDS011;22158;59.280;17.806;2024-03-29T13:40:12;6.25;;;1.40;;
35667;SDS011;22158;59.280;17.806;2024-03-29T13:42:38;5.63;;;1.20;;
35667;SDS011;22158;59.280;17.806;2024-03-29T13:45:04;2.47;;;1.10;;
35667;SDS011;22158;59.280;17.806;2024-03-29T13:47:34;4.72;;;1.33;;
35667;SDS011;22158;59.280;17.806;2024-03-29T13:50:09;3.67;;;0.95;;
35667;SDS011;22158;59.280;17.806;2024-03-29T13:52:36;3.80;;;1.40;;
35667;SDS011;22158;59.280;17.806;2024-03-29T13:55:03;3.88;;;1.35;;
35667;SDS011;22158;59.280;17.806;2024-03-29T13:57:29;3.53;;;1.63;;
35667;SDS011;22158;59.280;17.806;2024-03-29T13:59:56;2.45;;;1.15;;
35667;SDS011;22158;59.280;17.806;2024-03-29T14:02:23;3.22;;;1.33;;
35667;SDS011;22158;59.280;17.806;2024-03-29T14:04:51;4.05;;;1.65;;
35667;SDS011;22158;59.280;17.806;2024-03-29T14:07:17;4.63;;;1.75;;
35667;SDS011;22158;59.280;17.806;2024-03-29T14:09:46;1.63;;;0.85;;
35667;SDS011;22158;59.280;17.806;2024-03-29T14:12:12;3.60;;;1.23;;
35667;SDS011;22158;59.280;17.806;2024-03-29T14:14:38;5.43;;;1.75;;
35667;SDS011;22158;59.280;17.806;2024-03-29T14:17:06;5.88;;;1.77;;
35667;SDS011;22158;59.280;17.806;2024-03-29T14:19:33;4.38;;;2.63;;
35667;SDS011;22158;59.280;17.806;2024-03-29T14:22:03;7.25;;;2.60;;
35667;SDS011;22158;59.280;17.806;2024-03-29T14:24:29;4.80;;;2.00;;
35667;SDS011;22158;59.280;17.806;2024-03-29T14:26:57;8.90;;;3.72;;
35667;SDS011;22158;59.280;17.806;2024-03-29T14:29:23;7.80;;;3.35;;
35667;SDS011;22158;59.280;17.806;2024-03-29T14:31:48;7.80;;;3.20;;
35667;SDS011;22158;59.280;17.806;2024-03-29T14:34:15;7.00;;;1.25;;